createdAt,value
2022-08-20T00:01:02.341Z,3.70
2022-08-20T00:03:10.710Z,2.97
2022-08-20T00:05:13.315Z,3.30
2022-08-20T00:07:15.324Z,3.42
2022-08-20T00:09:17.013Z,3.50
2022-08-20T00:11:22.923Z,4.40
2022-08-20T00:13:36.159Z,3.85
2022-08-20T00:15:38.834Z,3.95
2022-08-20T00:17:41.017Z,8.65
2022-08-20T00:19:42.626Z,15.82
2022-08-20T00:21:44.229Z,14.25
2022-08-20T00:23:51.456Z,13.90
2022-08-20T00:25:53.361Z,11.30
2022-08-20T00:27:56.252Z,11.57
2022-08-20T00:29:57.885Z,10.30
2022-08-20T00:31:59.658Z,6.70
2022-08-20T00:34:01.244Z,4.22
2022-08-20T00:36:06.616Z,3.55
2022-08-20T00:38:08.229Z,3.97
2022-08-20T00:40:22.391Z,3.88
2022-08-20T00:42:25.448Z,3.88
2022-08-20T00:44:27.466Z,4.00
2022-08-20T00:46:32.090Z,4.80
2022-08-20T00:48:35.640Z,6.93
2022-08-20T00:50:37.896Z,6.00
2022-08-20T00:52:42.272Z,6.85
2022-08-20T00:54:58.728Z,6.65
2022-08-20T00:57:06.056Z,7.95
2022-08-20T00:59:13.050Z,7.15
2022-08-20T01:01:15.817Z,6.95
2022-08-20T01:03:20.564Z,6.85
2022-08-20T01:05:29.571Z,7.30
2022-08-20T01:07:33.570Z,7.88
2022-08-20T01:09:57.794Z,9.27
2022-08-20T01:11:57.922Z,8.43
2022-08-20T01:14:01.039Z,8.80
2022-08-20T01:16:04.089Z,8.98
2022-08-20T01:18:06.459Z,10.00
2022-08-20T01:20:12.427Z,9.85
2022-08-20T01:22:38.390Z,11.05
2022-08-20T01:24:41.170Z,9.77
2022-08-20T01:26:44.848Z,8.07
2022-08-20T01:28:55.916Z,8.95
2022-08-20T01:30:57.921Z,8.00
2022-08-20T01:32:59.519Z,8.55
2022-08-20T01:35:01.068Z,7.85
2022-08-20T01:37:02.891Z,9.07
2022-08-20T01:39:07.809Z,9.38
2022-08-20T01:41:35.272Z,9.77
2022-08-20T01:43:37.474Z,9.05
2022-08-20T01:45:40.218Z,9.27
2022-08-20T01:47:41.915Z,9.82
2022-08-20T01:49:51.047Z,10.23
2022-08-20T01:51:55.074Z,9.07
2022-08-20T01:53:59.863Z,10.50
2022-08-20T01:56:03.177Z,10.77
2022-08-20T01:58:04.891Z,10.80
2022-08-20T02:00:19.786Z,10.27
2022-08-20T02:02:22.876Z,11.20
2022-08-20T02:04:24.698Z,12.40
2022-08-20T02:06:27.199Z,10.77
2022-08-20T02:08:29.108Z,9.40
2022-08-20T02:10:31.820Z,10.00
2022-08-20T02:12:33.606Z,9.82
2022-08-20T02:14:37.113Z,11.70
2022-08-20T02:16:41.479Z,11.07
2022-08-20T02:18:43.084Z,10.68
2022-08-20T02:20:45.065Z,10.25
2022-08-20T02:22:55.403Z,11.68
2022-08-20T02:24:57.055Z,13.15
2022-08-20T02:26:58.729Z,13.02
2022-08-20T02:29:01.081Z,11.60
2022-08-20T02:31:07.893Z,11.98
2022-08-20T02:33:12.387Z,14.13
2022-08-20T02:35:15.039Z,15.48
2022-08-20T02:37:18.630Z,15.13
2022-08-20T02:39:20.276Z,11.75
2022-08-20T02:41:22.100Z,12.20
2022-08-20T02:43:23.847Z,11.57
2022-08-20T02:45:25.554Z,11.63
2022-08-20T02:47:27.869Z,12.45
2022-08-20T02:49:29.522Z,11.32
2022-08-20T02:51:31.278Z,11.60
2022-08-20T02:53:36.133Z,12.73
2022-08-20T02:55:37.731Z,18.27
2022-08-20T02:57:39.675Z,25.83
2022-08-20T02:59:41.221Z,25.65
2022-08-20T03:01:42.858Z,16.55
2022-08-20T03:03:45.400Z,15.98
2022-08-20T03:05:46.965Z,15.45
2022-08-20T03:07:53.531Z,18.08
2022-08-20T03:09:55.130Z,17.40
2022-08-20T03:11:56.734Z,17.80
2022-08-20T03:13:58.533Z,16.58
2022-08-20T03:16:01.551Z,16.65
2022-08-20T03:18:03.165Z,16.83
2022-08-20T03:20:07.495Z,16.70
2022-08-20T03:22:09.054Z,16.70
2022-08-20T03:24:10.648Z,16.42
2022-08-20T03:26:13.174Z,16.27
2022-08-20T03:28:15.388Z,18.45
2022-08-20T03:30:18.106Z,17.70
2022-08-20T03:32:19.768Z,19.17
2022-08-20T03:34:21.333Z,17.67
2022-08-20T03:36:28.152Z,17.38
2022-08-20T03:38:33.196Z,18.00
2022-08-20T03:40:35.915Z,18.50
2022-08-20T03:42:39.286Z,18.30
2022-08-20T03:44:40.885Z,17.48
2022-08-20T03:46:42.459Z,19.10
2022-08-20T03:48:44.096Z,18.25
2022-08-20T03:50:46.596Z,19.38
2022-08-20T03:52:48.165Z,18.02
2022-08-20T03:54:50.015Z,18.85
2022-08-20T03:56:51.950Z,19.33
2022-08-20T03:58:53.800Z,19.63
2022-08-20T04:00:56.221Z,19.63
2022-08-20T04:02:57.930Z,20.85
2022-08-20T04:04:59.480Z,24.42
2022-08-20T04:07:01.321Z,23.92
2022-08-20T04:09:03.392Z,26.73
2022-08-20T04:11:04.982Z,23.05
2022-08-20T04:13:07.233Z,21.88
2022-08-20T04:15:12.443Z,22.67
2022-08-20T04:17:14.408Z,22.05
2022-08-20T04:19:16.196Z,27.60
2022-08-20T04:21:17.756Z,26.05
2022-08-20T04:23:21.224Z,26.88
2022-08-20T04:25:23.935Z,23.23
2022-08-20T04:27:25.586Z,22.33
2022-08-20T04:29:32.388Z,20.00
2022-08-20T04:31:34.901Z,20.67
2022-08-20T04:33:36.455Z,20.52
2022-08-20T04:35:38.145Z,19.25
2022-08-20T04:37:39.731Z,19.45
2022-08-20T04:39:41.339Z,18.42
2022-08-20T04:41:43.438Z,16.55
2022-08-20T04:43:45.015Z,16.13
2022-08-20T04:45:47.310Z,13.25
2022-08-20T04:47:49.812Z,11.90
2022-08-20T04:49:51.356Z,11.90
2022-08-20T04:51:59.497Z,11.20
2022-08-20T04:54:02.545Z,11.65
2022-08-20T04:56:04.505Z,11.38
2022-08-20T04:58:10.984Z,11.07
2022-08-20T05:00:17.236Z,11.07
2022-08-20T05:02:20.258Z,11.60
2022-08-20T05:04:21.817Z,10.50
2022-08-20T05:06:25.938Z,11.48
2022-08-20T05:08:28.061Z,18.10
2022-08-20T05:10:30.120Z,11.10
2022-08-20T05:12:31.685Z,11.93
2022-08-20T05:14:33.647Z,11.13
2022-08-20T05:16:39.570Z,10.93
2022-08-20T05:18:41.387Z,10.27
2022-08-20T05:20:43.019Z,10.60
2022-08-20T05:22:44.716Z,10.93
2022-08-20T05:24:46.385Z,11.38
2022-08-20T05:26:47.970Z,10.50
2022-08-20T05:28:57.334Z,11.10
2022-08-20T05:31:01.144Z,9.88
2022-08-20T05:33:05.120Z,9.38
2022-08-20T05:35:09.692Z,9.45
2022-08-20T05:37:11.386Z,8.93
2022-08-20T05:39:14.470Z,9.48
2022-08-20T05:41:28.827Z,10.38
2022-08-20T05:43:33.695Z,11.65
2022-08-20T05:45:37.556Z,10.85
2022-08-20T05:47:42.660Z,11.05
2022-08-20T05:49:46.466Z,9.85
2022-08-20T05:51:49.485Z,10.73
2022-08-20T05:53:51.047Z,9.00
2022-08-20T05:55:53.110Z,8.13
2022-08-20T05:58:03.154Z,7.60
2022-08-20T06:00:08.323Z,6.78
2022-08-20T06:02:29.911Z,6.88
2022-08-20T06:04:32.193Z,6.65
2022-08-20T06:06:44.497Z,6.22
2022-08-20T06:08:48.340Z,6.90
2022-08-20T06:10:50.027Z,5.82
2022-08-20T06:12:53.349Z,6.00
2022-08-20T06:14:54.883Z,5.78
2022-08-20T06:17:02.858Z,5.75
2022-08-20T06:19:05.637Z,9.55
2022-08-20T06:21:07.210Z,10.52
2022-08-20T06:23:08.839Z,6.78
2022-08-20T06:25:10.650Z,6.65
2022-08-20T06:27:14.871Z,5.80
2022-08-20T06:29:16.417Z,5.22
2022-08-20T06:31:18.622Z,4.78
2022-08-20T06:33:20.216Z,5.07
2022-08-20T06:35:21.860Z,5.40
2022-08-20T06:37:30.887Z,5.28
2022-08-20T06:39:33.392Z,4.88
2022-08-20T06:41:36.978Z,6.07
2022-08-20T06:43:38.798Z,5.00
2022-08-20T06:45:40.642Z,5.20
2022-08-20T06:47:44.174Z,5.30
2022-08-20T06:49:47.555Z,6.40
2022-08-20T06:51:51.895Z,5.00
2022-08-20T06:53:53.848Z,5.85
2022-08-20T06:55:56.363Z,6.50
2022-08-20T06:58:03.331Z,6.68
2022-08-20T07:00:07.729Z,6.38
2022-08-20T07:02:09.323Z,5.35
2022-08-20T07:04:10.976Z,6.82
2022-08-20T07:06:12.542Z,6.55
2022-08-20T07:08:16.588Z,5.80
2022-08-20T07:10:20.040Z,5.57
2022-08-20T07:12:21.569Z,5.85
2022-08-20T07:14:23.205Z,6.20
2022-08-20T07:16:25.719Z,6.63
2022-08-20T07:18:28.826Z,6.60
2022-08-20T07:20:32.153Z,6.32
2022-08-20T07:22:36.962Z,6.20
2022-08-20T07:24:41.129Z,6.43
2022-08-20T07:26:43.847Z,5.82
2022-08-20T07:28:45.800Z,5.30
2022-08-20T07:31:13.661Z,5.32
2022-08-20T07:33:17.450Z,5.75
2022-08-20T07:35:20.169Z,5.90
2022-08-20T07:37:25.246Z,6.05
2022-08-20T07:39:28.442Z,5.47
2022-08-20T07:41:31.617Z,5.57
2022-08-20T07:43:33.369Z,5.60
2022-08-20T07:45:35.840Z,6.00
2022-08-20T07:47:39.317Z,6.22
2022-08-20T07:49:41.105Z,6.00
2022-08-20T07:51:42.968Z,6.00
2022-08-20T07:53:46.352Z,6.03
2022-08-20T07:55:52.828Z,6.55
2022-08-20T07:58:07.706Z,5.97
2022-08-20T08:00:11.606Z,5.90
2022-08-20T08:02:13.172Z,6.30
2022-08-20T08:04:16.538Z,5.90
2022-08-20T08:06:29.646Z,6.00
2022-08-20T08:08:33.143Z,6.22
2022-08-20T08:10:36.712Z,6.28
2022-08-20T08:12:43.136Z,6.20
2022-08-20T08:14:47.079Z,5.63
2022-08-20T08:16:49.092Z,5.90
2022-08-20T08:18:56.970Z,6.18
2022-08-20T08:20:58.589Z,5.45
2022-08-20T08:23:00.826Z,6.13
2022-08-20T08:25:02.810Z,5.72
2022-08-20T08:27:04.781Z,6.57
2022-08-20T08:29:10.043Z,6.15
2022-08-20T08:31:11.690Z,6.65
2022-08-20T08:33:27.718Z,7.43
2022-08-20T08:35:31.561Z,6.88
2022-08-20T08:37:33.235Z,6.72
2022-08-20T08:39:35.100Z,7.43
2022-08-20T08:41:42.029Z,9.52
2022-08-20T08:43:48.870Z,10.23
2022-08-20T08:46:05.377Z,16.48
2022-08-20T08:48:07.940Z,9.45
2022-08-20T08:50:33.369Z,8.50
2022-08-20T08:52:44.223Z,15.73
2022-08-20T08:54:52.426Z,18.95
2022-08-20T08:56:54.636Z,22.60
2022-08-20T08:59:05.156Z,44.67
2022-08-20T09:01:54.682Z,14.88
2022-08-20T09:03:38.377Z,7.50
2022-08-20T09:05:43.390Z,7.57
2022-08-20T09:07:49.039Z,7.60
2022-08-20T09:09:50.988Z,7.90
2022-08-20T09:11:56.097Z,9.10
2022-08-20T09:13:58.621Z,8.07
2022-08-20T09:16:00.498Z,20.25
2022-08-20T09:18:02.271Z,12.00
2022-08-20T09:20:04.570Z,9.50
2022-08-20T09:22:11.072Z,7.95
2022-08-20T09:24:12.903Z,10.30
2022-08-20T09:26:14.496Z,9.63
2022-08-20T09:28:16.069Z,11.48
2022-08-20T09:30:18.529Z,10.55
2022-08-20T09:32:22.383Z,10.25
2022-08-20T09:34:24.924Z,14.55
2022-08-20T09:36:32.482Z,10.63
2022-08-20T09:38:34.612Z,11.00
2022-08-20T09:40:36.184Z,10.60
2022-08-20T09:42:41.333Z,9.25
2022-08-20T09:44:43.666Z,9.23
2022-08-20T09:46:45.352Z,8.82
2022-08-20T09:48:47.055Z,9.23
2022-08-20T09:50:49.613Z,8.23
2022-08-20T09:52:53.635Z,8.63
2022-08-20T09:55:01.525Z,9.43
2022-08-20T09:57:06.176Z,9.77
2022-08-20T09:59:07.872Z,9.20
2022-08-20T10:01:15.016Z,9.18
2022-08-20T10:03:16.812Z,9.07
2022-08-20T10:05:18.441Z,7.78
2022-08-20T10:07:20.856Z,9.00
2022-08-20T10:09:23.300Z,9.60
2022-08-20T10:11:24.835Z,8.27
2022-08-20T10:13:26.625Z,8.75
2022-08-20T10:15:29.097Z,13.43
2022-08-20T10:17:30.774Z,9.25
2022-08-20T10:19:32.840Z,10.65
2022-08-20T10:21:38.621Z,12.43
2022-08-20T10:23:40.743Z,8.77
2022-08-20T10:25:43.005Z,8.48
2022-08-20T10:27:44.916Z,8.52
2022-08-20T10:29:47.128Z,7.30
2022-08-20T10:31:48.951Z,7.85
2022-08-20T10:33:50.587Z,8.35
2022-08-20T10:35:54.758Z,7.45
2022-08-20T10:38:01.564Z,8.10
2022-08-20T10:40:04.155Z,8.48
2022-08-20T10:42:06.493Z,8.07
2022-08-20T10:44:08.751Z,7.75
2022-08-20T10:46:10.343Z,10.65
2022-08-20T10:48:11.933Z,9.10
2022-08-20T10:50:16.003Z,7.22
2022-08-20T10:52:18.038Z,19.60
2022-08-20T10:54:19.767Z,10.50
2022-08-20T10:56:21.295Z,7.75
2022-08-20T10:58:23.857Z,14.50
2022-08-20T11:00:25.973Z,8.48
2022-08-20T11:02:28.593Z,7.43
2022-08-20T11:04:36.247Z,7.68
2022-08-20T11:06:37.787Z,17.08
2022-08-20T11:08:39.449Z,10.70
2022-08-20T11:10:41.427Z,9.43
2022-08-20T11:12:46.094Z,368.02
2022-08-20T11:14:49.124Z,367.15
2022-08-20T11:16:50.702Z,331.58
2022-08-20T11:18:52.266Z,653.05
2022-08-20T11:20:53.855Z,683.25
2022-08-20T11:22:55.929Z,500.05
2022-08-20T11:24:57.517Z,9.93
2022-08-20T11:26:59.309Z,9.45
2022-08-20T11:29:00.928Z,10.20
2022-08-20T11:31:02.579Z,9.13
2022-08-20T11:33:04.779Z,9.15
2022-08-20T11:35:38.481Z,9.52
2022-08-20T11:37:28.439Z,10.30
2022-08-20T11:39:30.514Z,8.85
2022-08-20T11:41:32.061Z,9.25
2022-08-20T11:43:33.598Z,7.03
2022-08-20T11:45:37.871Z,7.43
2022-08-20T11:47:39.666Z,8.23
2022-08-20T11:49:41.364Z,6.28
2022-08-20T11:51:49.087Z,7.35
2022-08-20T11:53:51.843Z,7.13
2022-08-20T11:55:53.547Z,7.38
2022-08-20T11:57:55.195Z,8.38
2022-08-20T12:00:05.344Z,7.57
2022-08-20T12:02:11.678Z,7.78
2022-08-20T12:04:14.837Z,9.95
2022-08-20T12:06:16.605Z,8.75
2022-08-20T12:08:27.185Z,10.82
2022-08-20T12:10:30.619Z,9.98
2022-08-20T12:12:32.884Z,10.25
2022-08-20T12:14:34.710Z,7.88
2022-08-20T12:16:36.960Z,10.77
2022-08-20T12:18:38.649Z,9.23
2022-08-20T12:20:40.333Z,9.55
2022-08-20T12:22:42.013Z,10.10
2022-08-20T12:24:43.581Z,9.55
2022-08-20T12:26:47.949Z,8.18
2022-08-20T12:28:49.899Z,8.00
2022-08-20T12:30:51.441Z,10.23
2022-08-20T12:32:53.074Z,10.80
2022-08-20T12:34:55.118Z,8.82
2022-08-20T12:37:05.330Z,9.15
2022-08-20T12:39:07.979Z,8.55
2022-08-20T12:41:10.280Z,9.20
2022-08-20T12:43:11.909Z,11.38
2022-08-20T12:45:13.466Z,9.25
2022-08-20T12:47:35.746Z,8.48
2022-08-20T12:49:37.857Z,7.15
2022-08-20T12:51:39.506Z,8.38
2022-08-20T12:53:41.142Z,9.10
2022-08-20T12:55:42.771Z,8.70
2022-08-20T12:57:47.661Z,7.55
2022-08-20T12:59:49.216Z,7.72
2022-08-20T13:01:52.220Z,6.90
2022-08-20T13:03:54.222Z,7.60
2022-08-20T13:05:55.806Z,6.82
2022-08-20T13:07:57.746Z,6.53
2022-08-20T13:09:59.877Z,6.55
2022-08-20T13:12:01.475Z,6.72
2022-08-20T13:14:10.233Z,6.85
2022-08-20T13:16:11.813Z,6.90
2022-08-20T13:18:13.390Z,6.25
2022-08-20T13:20:16.541Z,5.22
2022-08-20T13:22:18.270Z,6.57
2022-08-20T13:24:20.266Z,7.22
2022-08-20T13:26:22.011Z,7.38
2022-08-20T13:28:24.627Z,7.40
2022-08-20T13:30:26.893Z,8.50
2022-08-20T13:32:28.541Z,8.40
2022-08-20T13:34:30.247Z,7.80
2022-08-20T13:36:32.242Z,8.40
2022-08-20T13:38:33.839Z,8.32
2022-08-20T13:40:35.569Z,7.95
2022-08-20T13:42:37.704Z,8.27
2022-08-20T13:44:39.945Z,8.07
2022-08-20T13:46:41.896Z,8.55
2022-08-20T13:48:43.789Z,8.30
2022-08-20T13:50:47.177Z,8.75
2022-08-20T13:52:49.114Z,9.38
2022-08-20T13:54:50.841Z,8.35
2022-08-20T13:56:55.073Z,8.48
2022-08-20T13:58:56.727Z,8.75
2022-08-20T14:00:58.546Z,9.25
2022-08-20T14:03:01.737Z,9.90
2022-08-20T14:05:03.543Z,8.32
2022-08-20T14:07:26.774Z,8.57
2022-08-20T14:09:31.719Z,8.23
2022-08-20T14:11:33.586Z,8.15
2022-08-20T14:13:35.239Z,7.97
2022-08-20T14:15:37.816Z,7.93
2022-08-20T14:17:42.031Z,7.43
2022-08-20T14:19:44.477Z,7.25
2022-08-20T14:21:46.192Z,8.88
2022-08-20T14:23:47.738Z,8.15
2022-08-20T14:25:50.208Z,8.63
2022-08-20T14:27:52.974Z,7.82
2022-08-20T14:29:54.765Z,8.88
2022-08-20T14:31:56.382Z,8.88
2022-08-20T14:33:58.216Z,9.85
2022-08-20T14:35:59.769Z,11.05
2022-08-20T14:38:02.453Z,9.38
2022-08-20T14:40:10.548Z,10.30
2022-08-20T14:42:13.003Z,8.65
2022-08-20T14:44:14.762Z,8.88
2022-08-20T14:46:16.332Z,9.50
2022-08-20T14:48:17.982Z,8.77
2022-08-20T14:50:30.251Z,8.10
2022-08-20T14:52:36.407Z,8.88
2022-08-20T14:54:38.333Z,8.77
2022-08-20T14:56:39.964Z,8.80
2022-08-20T14:58:41.552Z,8.43
2022-08-20T15:00:43.927Z,8.10
2022-08-20T15:02:46.284Z,8.77
2022-08-20T15:04:52.273Z,9.57
2022-08-20T15:06:55.882Z,10.50
2022-08-20T15:09:02.384Z,8.55
2022-08-20T15:11:07.635Z,7.25
2022-08-20T15:13:09.219Z,7.35
2022-08-20T15:15:15.998Z,7.45
2022-08-20T15:17:23.138Z,7.05
2022-08-20T15:19:24.688Z,7.00
2022-08-20T15:21:27.023Z,7.68
2022-08-20T15:23:28.607Z,7.22
2022-08-20T15:25:36.390Z,7.13
2022-08-20T15:27:39.194Z,7.83
2022-08-20T15:29:40.801Z,7.47
2022-08-20T15:31:42.383Z,8.02
2022-08-20T15:33:46.425Z,8.52
2022-08-20T15:35:48.050Z,8.95
2022-08-20T15:37:50.479Z,10.65
2022-08-20T15:39:52.922Z,11.70
2022-08-20T15:41:54.515Z,12.65
2022-08-20T15:43:58.093Z,11.63
2022-08-20T15:46:00.868Z,10.00
2022-08-20T15:48:11.285Z,9.45
2022-08-20T15:50:18.456Z,11.15
2022-08-20T15:52:20.092Z,12.75
2022-08-20T15:54:24.171Z,16.50
2022-08-20T15:56:33.599Z,16.92
2022-08-20T15:59:21.797Z,13.68
2022-08-20T16:01:48.737Z,12.68
2022-08-20T16:03:56.515Z,10.10
2022-08-20T16:06:01.653Z,10.07
2022-08-20T16:08:09.163Z,11.65
2022-08-20T16:10:43.266Z,10.68
2022-08-20T16:12:49.072Z,11.30
2022-08-20T16:14:52.296Z,10.65
2022-08-20T16:17:19.227Z,12.25
2022-08-20T16:19:23.983Z,12.20
2022-08-20T16:21:37.725Z,12.38
2022-08-20T16:23:41.227Z,12.82
2022-08-20T16:25:51.631Z,13.18
2022-08-20T16:28:24.724Z,13.07
2022-08-20T16:30:40.417Z,13.65
2022-08-20T16:32:47.446Z,13.48
2022-08-20T16:34:59.682Z,13.18
2022-08-20T16:37:31.216Z,11.95
2022-08-20T16:40:11.424Z,14.43
2022-08-20T16:42:13.425Z,13.93
2022-08-20T16:44:20.785Z,14.55
2022-08-20T16:46:26.961Z,13.77
2022-08-20T16:48:35.641Z,12.95
2022-08-20T16:51:07.321Z,13.65
2022-08-20T16:53:18.529Z,16.17
2022-08-20T16:55:22.565Z,18.42
2022-08-20T16:57:27.039Z,15.07
2022-08-20T16:59:29.338Z,16.35
2022-08-20T17:01:31.665Z,17.50
2022-08-20T17:03:40.043Z,17.20
2022-08-20T17:05:46.035Z,17.50
2022-08-20T17:07:54.054Z,17.08
2022-08-20T17:10:13.412Z,19.08
2022-08-20T17:12:15.046Z,16.52
2022-08-20T17:14:18.500Z,15.88
2022-08-20T17:16:21.226Z,20.73
2022-08-20T17:18:28.738Z,26.35
2022-08-20T17:20:30.386Z,36.38
2022-08-20T17:22:40.825Z,37.78
2022-08-20T17:24:42.537Z,19.80
2022-08-20T17:26:45.972Z,14.70
2022-08-20T17:28:57.717Z,14.10
2022-08-20T17:31:02.267Z,14.45
2022-08-20T17:33:28.774Z,15.75
2022-08-20T17:35:34.387Z,35.85
2022-08-20T17:37:42.020Z,44.53
2022-08-20T17:39:47.088Z,56.85
2022-08-20T17:41:51.486Z,43.33
2022-08-20T17:44:26.423Z,23.10
2022-08-20T17:46:31.074Z,27.77
2022-08-20T17:48:38.014Z,44.33
2022-08-20T17:50:41.141Z,42.45
2022-08-20T17:52:52.279Z,41.20
2022-08-20T17:54:53.886Z,39.67
2022-08-20T17:56:59.804Z,36.10
2022-08-20T17:59:10.546Z,25.20
2022-08-20T18:01:15.105Z,21.88
2022-08-20T18:03:24.206Z,14.02
2022-08-20T18:05:27.909Z,23.83
2022-08-20T18:07:40.445Z,19.45
2022-08-20T18:09:46.688Z,18.60
2022-08-20T18:11:53.836Z,25.83
2022-08-20T18:14:05.380Z,66.30
2022-08-20T18:16:10.217Z,28.00
2022-08-20T18:18:29.493Z,22.25
2022-08-20T18:20:37.394Z,22.17
2022-08-20T18:22:54.787Z,77.32
2022-08-20T18:25:26.523Z,18.60
2022-08-20T18:27:31.765Z,21.67
2022-08-20T18:29:35.662Z,28.65
2022-08-20T18:31:59.013Z,14.75
2022-08-20T18:34:16.542Z,16.92
2022-08-20T18:36:18.015Z,14.93
2022-08-20T18:38:22.289Z,15.27
2022-08-20T18:40:30.104Z,14.85
2022-08-20T18:42:36.940Z,13.90
2022-08-20T18:44:41.614Z,13.50
2022-08-20T18:46:57.238Z,16.70
2022-08-20T18:49:05.271Z,18.63
2022-08-20T18:51:09.737Z,17.60
2022-08-20T18:53:17.355Z,22.30
2022-08-20T18:55:36.159Z,25.95
2022-08-20T18:57:54.785Z,25.85
2022-08-20T18:59:57.592Z,24.45
2022-08-20T19:01:59.338Z,20.25
2022-08-20T19:04:01.936Z,18.58
2022-08-20T19:06:15.769Z,24.40
2022-08-20T19:08:20.662Z,17.27
2022-08-20T19:10:47.303Z,20.25
2022-08-20T19:13:16.105Z,18.15
2022-08-20T19:15:19.549Z,18.20
2022-08-20T19:17:36.688Z,17.55
2022-08-20T19:19:38.602Z,21.30
2022-08-20T19:21:42.748Z,16.75
2022-08-20T19:23:49.391Z,19.90
2022-08-20T19:26:00.866Z,19.65
2022-08-20T19:28:32.650Z,16.45
2022-08-20T19:30:39.531Z,16.77
2022-08-20T19:32:51.649Z,19.55
2022-08-20T19:34:56.302Z,16.92
2022-08-20T19:37:35.783Z,18.45
2022-08-20T19:39:40.709Z,17.38
2022-08-20T19:41:48.051Z,33.78
2022-08-20T19:43:49.810Z,18.90
2022-08-20T19:45:54.463Z,16.60
2022-08-20T19:48:33.567Z,18.27
2022-08-20T19:50:45.432Z,24.98
2022-08-20T19:53:07.926Z,17.50
2022-08-20T19:55:36.171Z,18.13
2022-08-20T19:57:37.726Z,17.48
2022-08-20T19:59:39.387Z,16.92
2022-08-20T20:02:02.545Z,17.27
2022-08-20T20:04:14.151Z,17.27
2022-08-20T20:06:18.937Z,16.17
2022-08-20T20:08:22.497Z,16.65
2022-08-20T20:10:32.459Z,16.23
2022-08-20T20:12:35.039Z,16.15
2022-08-20T20:14:38.674Z,16.05
2022-08-20T20:16:41.734Z,17.70
2022-08-20T20:18:43.413Z,18.13
2022-08-20T20:20:57.500Z,17.83
2022-08-20T20:23:06.590Z,18.73
2022-08-20T20:25:21.509Z,17.05
2022-08-20T20:27:25.466Z,21.25
2022-08-20T20:29:36.042Z,18.48
2022-08-20T20:31:58.749Z,17.48
2022-08-20T20:34:07.761Z,19.40
2022-08-20T20:36:16.666Z,18.67
2022-08-20T20:38:27.516Z,19.25
2022-08-20T20:40:51.979Z,18.58
2022-08-20T20:43:04.337Z,20.17
2022-08-20T20:45:19.423Z,21.35
2022-08-20T20:47:32.806Z,20.20
2022-08-20T20:49:51.913Z,20.92
2022-08-20T20:52:04.067Z,20.17
2022-08-20T20:54:23.351Z,21.88
2022-08-20T20:56:33.937Z,21.50
2022-08-20T20:58:35.465Z,23.30
2022-08-20T21:00:37.045Z,22.58
2022-08-20T21:02:38.679Z,22.08
2022-08-20T21:04:42.636Z,22.75
2022-08-20T21:06:44.491Z,23.58
2022-08-20T21:08:46.045Z,23.13
2022-08-20T21:10:49.036Z,20.92
2022-08-20T21:12:53.148Z,22.98
2022-08-20T21:14:55.070Z,21.85
2022-08-20T21:16:59.755Z,20.02
2022-08-20T21:19:04.067Z,19.23
2022-08-20T21:21:07.260Z,21.38
2022-08-20T21:23:08.855Z,21.90
2022-08-20T21:25:10.484Z,22.27
2022-08-20T21:27:12.777Z,22.27
2022-08-20T21:29:17.117Z,21.60
2022-08-20T21:31:18.661Z,25.30
2022-08-20T21:33:20.262Z,22.90
2022-08-20T21:35:22.219Z,22.77
2022-08-20T21:37:23.832Z,25.13
2022-08-20T21:39:25.919Z,23.85
2022-08-20T21:41:30.175Z,24.85
2022-08-20T21:43:32.864Z,23.48
2022-08-20T21:45:34.795Z,23.20
2022-08-20T21:47:36.549Z,23.70
2022-08-20T21:49:38.106Z,23.85
2022-08-20T21:51:39.673Z,26.23
2022-08-20T21:53:41.250Z,25.63
2022-08-20T21:55:42.823Z,26.75
2022-08-20T21:57:44.916Z,26.58
2022-08-20T21:59:46.468Z,25.67
2022-08-20T22:01:48.320Z,25.15
2022-08-20T22:03:51.672Z,26.58
2022-08-20T22:05:54.098Z,26.38
2022-08-20T22:07:55.688Z,28.90
2022-08-20T22:09:57.284Z,28.63
2022-08-20T22:12:01.058Z,29.77
2022-08-20T22:14:06.494Z,29.60
2022-08-20T22:16:10.066Z,30.38
2022-08-20T22:18:11.822Z,29.90
2022-08-20T22:20:13.381Z,31.17
2022-08-20T22:22:16.051Z,32.03
2022-08-20T22:24:17.757Z,32.25
2022-08-20T22:26:19.652Z,32.63
2022-08-20T22:28:21.214Z,33.47
2022-08-20T22:30:23.160Z,34.63
2022-08-20T22:32:33.554Z,36.25
2022-08-20T22:34:46.443Z,34.10
2022-08-20T22:36:49.006Z,35.28
2022-08-20T22:38:54.628Z,39.83
2022-08-20T22:40:56.445Z,38.25
2022-08-20T22:42:58.083Z,36.75
2022-08-20T22:44:59.774Z,37.22
2022-08-20T22:47:05.028Z,37.83
2022-08-20T22:49:09.385Z,37.75
2022-08-20T22:51:16.432Z,37.97
2022-08-20T22:53:19.827Z,38.20
2022-08-20T22:55:21.458Z,38.85
2022-08-20T22:57:22.998Z,38.38
2022-08-20T22:59:24.816Z,40.75
2022-08-20T23:01:27.505Z,41.70
2022-08-20T23:03:40.195Z,45.30
2022-08-20T23:05:42.318Z,41.40
2022-08-20T23:07:43.920Z,39.30
2022-08-20T23:09:45.748Z,40.83
2022-08-20T23:11:47.314Z,41.15
2022-08-20T23:13:48.902Z,41.28
2022-08-20T23:15:50.605Z,43.75
2022-08-20T23:18:02.974Z,43.20
2022-08-20T23:20:17.093Z,44.40
2022-08-20T23:22:19.579Z,43.22
2022-08-20T23:24:21.598Z,42.58
2022-08-20T23:26:23.363Z,42.17
2022-08-20T23:28:25.853Z,43.22
2022-08-20T23:30:27.821Z,43.17
2022-08-20T23:32:29.395Z,42.65
2022-08-20T23:34:31.061Z,44.63
2022-08-20T23:36:33.020Z,44.78
2022-08-20T23:38:34.756Z,44.10
2022-08-20T23:40:37.017Z,46.53
2022-08-20T23:42:38.940Z,46.03
2022-08-20T23:44:40.565Z,43.70
2022-08-20T23:46:42.148Z,44.22
2022-08-20T23:48:43.778Z,47.55
2022-08-20T23:50:45.324Z,49.47
2022-08-20T23:52:47.387Z,51.03
2022-08-20T23:54:49.154Z,51.65
2022-08-20T23:56:50.734Z,51.40
2022-08-20T23:58:52.958Z,51.20
